Time,TemperatureF,DewpointF,PressureIn,WindDirection,WindDirectionDegrees,WindSpeedMPH,WindSpeedGustMPH,Humidity,HourlyPrecipIn,Conditions,Clouds,dailyrainin,SoftwareType,DateUTC
2013-02-18 00:04:00,26.5,13.0,30.20,East,90,7.5,7.5,58,0.00,,,0.00,TxWx,2013-02-18 06:04:00,
2013-02-18 00:09:00,26.5,13.0,30.20,East,80,4.8,4.8,58,0.00,,,0.00,TxWx,2013-02-18 06:09:00,
2013-02-18 00:15:00,26.5,13.0,30.20,ESE,113,9.6,11.1,59,0.00,,,0.00,TxWx,2013-02-18 06:15:00,
2013-02-18 00:20:00,26.5,14.0,30.20,East,95,8.7,8.7,59,0.00,,,0.00,TxWx,2013-02-18 06:20:00,
2013-02-18 00:25:00,26.6,13.0,30.20,ESE,107,8.7,9.6,59,0.00,,,0.00,TxWx,2013-02-18 06:25:00,
2013-02-18 00:30:00,26.5,14.0,30.19,East,92,7.2,8.7,59,0.00,,,0.00,TxWx,2013-02-18 06:30:00,
2013-02-18 00:35:00,26.5,14.0,30.19,ESE,119,14.4,14.4,59,0.00,,,0.00,TxWx,2013-02-18 06:35:00,
2013-02-18 00:40:00,26.5,14.0,30.18,ESE,103,5.4,6.3,59,0.00,,,0.00,TxWx,2013-02-18 06:40:00,
2013-02-18 00:45:00,26.6,14.0,30.18,ESE,107,12.3,12.3,59,0.00,,,0.00,TxWx,2013-02-18 06:45:00,
2013-02-18 00:51:00,26.6,13.0,30.18,East,88,6.3,6.9,59,0.00,,,0.00,TxWx,2013-02-18 06:51:00,
2013-02-18 00:56:00,26.7,13.0,30.18,East,87,4.8,5.4,59,0.00,,,0.00,TxWx,2013-02-18 06:56:00,
2013-02-18 01:01:00,26.9,13.0,30.18,East,93,9.6,9.6,58,0.00,,,0.00,TxWx,2013-02-18 07:01:00,
2013-02-18 01:06:00,27.0,13.0,30.18,ESE,108,9.3,11.4,58,0.00,,,0.00,TxWx,2013-02-18 07:06:00,
2013-02-18 01:11:00,27.0,13.0,30.17,East,97,7.2,7.2,58,0.00,,,0.00,TxWx,2013-02-18 07:11:00,
2013-02-18 01:16:00,27.0,13.0,30.16,East,89,6.3,7.5,58,0.00,,,0.00,TxWx,2013-02-18 07:16:00,
2013-02-18 01:22:00,27.2,13.0,30.16,East,97,8.4,9.6,58,0.00,,,0.00,TxWx,2013-02-18 07:22:00,
2013-02-18 01:27:00,27.2,13.0,30.16,ESE,102,4.5,5.4,58,0.00,,,0.00,TxWx,2013-02-18 07:27:00,
2013-02-18 01:32:00,27.3,13.0,30.16,ESE,104,9.3,11.1,58,0.00,,,0.00,TxWx,2013-02-18 07:32:00,
2013-02-18 01:37:00,27.4,13.0,30.16,East,99,7.2,7.5,58,0.00,,,0.00,TxWx,2013-02-18 07:37:00,
2013-02-18 01:42:00,27.3,13.0,30.15,East,96,11.1,12.6,58,0.00,,,0.00,TxWx,2013-02-18 07:42:00,
2013-02-18 01:48:00,27.5,13.0,30.15,East,94,6.6,7.8,59,0.00,,,0.00,TxWx,2013-02-18 07:48:00,
2013-02-18 01:53:00,27.5,13.0,30.15,East,93,5.7,5.7,58,0.00,,,0.00,TxWx,2013-02-18 07:53:00,
2013-02-18 01:58:00,27.4,13.0,30.15,East,80,10.8,10.8,59,0.00,,,0.00,TxWx,2013-02-18 07:58:00,
2013-02-18 02:03:00,27.4,13.0,30.15,ESE,102,9.3,10.5,59,0.00,,,0.00,TxWx,2013-02-18 08:03:00,
2013-02-18 02:08:00,27.4,14.0,30.14,East,95,6.6,9.0,59,0.00,,,0.00,TxWx,2013-02-18 08:08:00,
2013-02-18 02:13:00,27.4,14.0,30.14,East,90,6.9,9.0,59,0.00,,,0.00,TxWx,2013-02-18 08:13:00,
2013-02-18 02:18:00,27.7,15.0,30.14,East,85,14.1,14.1,59,0.00,,,0.00,TxWx,2013-02-18 08:18:00,
2013-02-18 02:24:00,28.0,15.0,30.14,ESE,102,7.8,8.4,59,0.00,,,0.00,TxWx,2013-02-18 08:24:00,
2013-02-18 02:29:00,28.2,15.0,30.13,ESE,105,8.4,8.4,59,0.00,,,0.00,TxWx,2013-02-18 08:29:00,
2013-02-18 02:34:00,28.2,15.0,30.13,East,97,14.4,14.4,59,0.00,,,0.00,TxWx,2013-02-18 08:34:00,
2013-02-18 02:39:00,28.4,15.0,30.12,ESE,112,9.3,10.2,59,0.00,,,0.00,TxWx,2013-02-18 08:39:00,
2013-02-18 02:44:00,28.5,15.0,30.12,ESE,110,9.9,12.0,59,0.00,,,0.00,TxWx,2013-02-18 08:44:00,
2013-02-18 02:49:00,28.5,15.0,30.12,ESE,114,13.8,13.8,59,0.00,,,0.00,TxWx,2013-02-18 08:49:00,
2013-02-18 02:55:00,28.6,15.0,30.12,ESE,116,10.2,10.2,59,0.00,,,0.00,TxWx,2013-02-18 08:55:00,
2013-02-18 03:00:00,28.8,15.0,30.12,ESE,112,10.2,11.1,59,0.00,,,0.00,TxWx,2013-02-18 09:00:00,
2013-02-18 03:05:00,28.7,15.0,30.11,East,100,7.2,7.2,59,0.00,,,0.00,TxWx,2013-02-18 09:05:00,
2013-02-18 03:10:00,28.8,15.0,30.11,East,93,7.8,8.4,59,0.00,,,0.00,TxWx,2013-02-18 09:10:00,
2013-02-18 03:16:00,28.7,16.0,30.10,East,98,11.1,11.1,60,0.00,,,0.00,TxWx,2013-02-18 09:16:00,
2013-02-18 03:21:00,28.6,16.0,30.09,ESE,110,6.0,6.0,60,0.00,,,0.00,TxWx,2013-02-18 09:21:00,
2013-02-18 03:26:00,28.8,16.0,30.09,ESE,109,9.3,11.4,60,0.00,,,0.00,TxWx,2013-02-18 09:26:00,
2013-02-18 03:31:00,28.8,16.0,30.08,ESE,116,9.3,9.3,60,0.00,,,0.00,TxWx,2013-02-18 09:31:00,
2013-02-18 03:36:00,28.9,16.0,30.08,ESE,114,10.2,10.2,60,0.00,,,0.00,TxWx,2013-02-18 09:36:00,
2013-02-18 03:42:00,28.9,16.0,30.07,East,100,9.0,9.0,60,0.00,,,0.00,TxWx,2013-02-18 09:42:00,
2013-02-18 03:47:00,29.0,16.0,30.07,ESE,118,12.9,12.9,60,0.00,,,0.00,TxWx,2013-02-18 09:47:00,
2013-02-18 03:52:00,29.0,16.0,30.07,ESE,115,9.6,11.7,60,0.00,,,0.00,TxWx,2013-02-18 09:52:00,
2013-02-18 03:58:00,29.1,16.0,30.07,East,101,9.6,9.9,60,0.00,,,0.00,TxWx,2013-02-18 09:58:00,
2013-02-18 04:03:00,29.4,15.0,30.06,ESE,105,8.7,9.6,59,0.00,,,0.00,TxWx,2013-02-18 10:03:00,
2013-02-18 04:08:00,29.7,16.0,30.06,ESE,110,14.4,15.9,59,0.00,,,0.00,TxWx,2013-02-18 10:08:00,
2013-02-18 04:13:00,30.0,16.0,30.06,ESE,109,19.8,21.0,58,0.00,,,0.00,TxWx,2013-02-18 10:13:00,
2013-02-18 04:18:00,30.1,16.0,30.06,ESE,108,16.5,16.5,58,0.00,,,0.00,TxWx,2013-02-18 10:18:00,
2013-02-18 04:24:00,30.6,16.0,30.06,ESE,113,14.4,14.4,57,0.00,,,0.00,TxWx,2013-02-18 10:24:00,
2013-02-18 04:29:00,30.5,15.0,30.05,ESE,114,14.4,16.5,57,0.00,,,0.00,TxWx,2013-02-18 10:29:00,
2013-02-18 04:34:00,30.2,16.0,30.06,East,99,12.0,12.9,57,0.00,,,0.00,TxWx,2013-02-18 10:34:00,
2013-02-18 04:39:00,30.1,16.0,30.05,East,99,15.0,15.0,58,0.00,,,0.00,TxWx,2013-02-18 10:39:00,
2013-02-18 04:44:00,30.0,16.0,30.05,ESE,107,10.5,10.5,58,0.00,,,0.00,TxWx,2013-02-18 10:44:00,
2013-02-18 04:49:00,30.1,16.0,30.05,East,101,12.9,24.3,58,0.00,,,0.00,TxWx,2013-02-18 10:49:00,
2013-02-18 04:55:00,30.2,16.0,30.04,ESE,110,13.5,13.5,58,0.00,,,0.00,TxWx,2013-02-18 10:55:00,
2013-02-18 05:00:00,30.4,16.0,30.04,ESE,103,7.2,7.2,58,0.00,,,0.00,TxWx,2013-02-18 11:00:00,
2013-02-18 05:06:00,30.5,16.0,30.04,East,98,16.8,18.6,58,0.00,,,0.00,TxWx,2013-02-18 11:06:00,
2013-02-18 05:11:00,30.7,17.0,30.04,ESE,116,13.5,14.1,58,0.00,,,0.00,TxWx,2013-02-18 11:11:00,
2013-02-18 05:16:00,30.8,17.0,30.03,East,90,13.2,14.7,58,0.00,,,0.00,TxWx,2013-02-18 11:16:00,
2013-02-18 05:21:00,30.9,17.0,30.04,ESE,119,14.7,15.0,57,0.00,,,0.00,TxWx,2013-02-18 11:21:00,
2013-02-18 05:26:00,30.9,17.0,30.04,ESE,111,7.8,7.8,57,0.00,,,0.00,TxWx,2013-02-18 11:26:00,
2013-02-18 05:32:00,30.8,17.0,30.03,ESE,105,11.7,12.3,58,0.00,,,0.00,TxWx,2013-02-18 11:32:00,
2013-02-18 05:37:00,31.0,17.0,30.03,ESE,102,12.9,15.6,58,0.00,,,0.00,TxWx,2013-02-18 11:37:00,
2013-02-18 05:42:00,30.9,17.0,30.02,ESE,103,13.8,14.7,58,0.00,,,0.00,TxWx,2013-02-18 11:42:00,
2013-02-18 05:47:00,31.1,17.0,30.02,ESE,103,16.8,16.8,58,0.00,,,0.00,TxWx,2013-02-18 11:47:00,
2013-02-18 05:52:00,31.0,17.0,30.02,ESE,106,10.2,10.2,58,0.00,,,0.00,TxWx,2013-02-18 11:52:00,
2013-02-18 05:57:00,31.0,17.0,30.02,ESE,109,10.8,10.8,58,0.00,,,0.00,TxWx,2013-02-18 11:57:00,
2013-02-18 06:02:00,31.0,17.0,30.02,ESE,104,10.5,12.9,58,0.00,,,0.00,TxWx,2013-02-18 12:02:00,
2013-02-18 06:07:00,31.1,17.0,30.01,ESE,116,10.2,12.6,58,0.00,,,0.00,TxWx,2013-02-18 12:07:00,
2013-02-18 06:13:00,31.1,17.0,30.01,ESE,112,10.5,10.5,59,0.00,,,0.00,TxWx,2013-02-18 12:13:00,
2013-02-18 06:18:00,31.2,17.0,30.01,East,90,13.8,16.2,59,0.00,,,0.00,TxWx,2013-02-18 12:18:00,
2013-02-18 06:23:00,31.2,17.0,30.01,ESE,110,13.5,13.5,59,0.00,,,0.00,TxWx,2013-02-18 12:23:00,
2013-02-18 06:29:00,31.3,17.0,30.00,East,92,8.7,9.3,59,0.00,,,0.00,TxWx,2013-02-18 12:29:00,
2013-02-18 06:34:00,31.5,18.0,30.00,ESE,119,14.1,14.4,59,0.00,,,0.00,TxWx,2013-02-18 12:34:00,
2013-02-18 06:39:00,31.6,18.0,30.00,ESE,105,15.9,15.9,59,0.00,,,0.00,TxWx,2013-02-18 12:39:00,
2013-02-18 06:44:00,31.8,18.0,30.00,ESE,106,15.9,15.9,59,0.00,,,0.00,TxWx,2013-02-18 12:44:00,
2013-02-18 06:50:00,32.0,18.0,30.00,ESE,116,16.2,16.2,59,0.00,,,0.00,TxWx,2013-02-18 12:50:00,
2013-02-18 06:55:00,31.9,18.0,30.00,ESE,111,11.4,12.0,59,0.00,,,0.00,TxWx,2013-02-18 12:55:00,
2013-02-18 07:00:00,32.0,18.0,30.00,ESE,106,12.3,13.5,59,0.00,,,0.00,TxWx,2013-02-18 13:00:00,
2013-02-18 07:05:00,32.1,18.0,30.00,ESE,109,17.7,18.0,60,0.00,,,0.00,TxWx,2013-02-18 13:05:00,
2013-02-18 07:10:00,32.1,19.0,30.00,ESE,111,12.0,12.3,60,0.00,,,0.00,TxWx,2013-02-18 13:10:00,
2013-02-18 07:15:00,32.2,19.0,29.99,ESE,116,14.7,14.7,60,0.00,,,0.00,TxWx,2013-02-18 13:15:00,
2013-02-18 07:21:00,32.6,20.0,29.99,ESE,108,15.3,15.3,61,0.00,,,0.00,TxWx,2013-02-18 13:21:00,
2013-02-18 07:26:00,32.8,20.0,29.99,ESE,115,10.5,11.1,60,0.00,,,0.00,TxWx,2013-02-18 13:26:00,
2013-02-18 07:31:00,33.0,20.0,29.99,ESE,105,8.4,10.2,60,0.00,,,0.00,TxWx,2013-02-18 13:31:00,
2013-02-18 07:36:00,33.6,21.0,29.99,ESE,104,11.7,11.7,60,0.00,,,0.00,TxWx,2013-02-18 13:36:00,
2013-02-18 07:41:00,34.7,22.0,29.99,ESE,114,16.5,17.4,60,0.00,,,0.00,TxWx,2013-02-18 13:41:00,
2013-02-18 07:47:00,35.5,21.0,29.98,ESE,114,10.5,11.7,59,0.00,,,0.00,TxWx,2013-02-18 13:47:00,
2013-02-18 07:52:00,35.8,22.0,29.98,ESE,104,12.6,13.2,58,0.00,,,0.00,TxWx,2013-02-18 13:52:00,
2013-02-18 07:59:00,36.3,22.0,29.98,ESE,115,13.2,18.3,58,0.00,,,0.00,TxWx,2013-02-18 13:59:00,
2013-02-18 08:04:00,36.6,22.0,29.98,ESE,112,16.2,17.4,58,0.00,,,0.00,TxWx,2013-02-18 14:04:00,
2013-02-18 08:09:00,36.9,22.0,29.98,ESE,114,16.5,18.3,58,0.00,,,0.00,TxWx,2013-02-18 14:09:00,
2013-02-18 08:15:00,37.5,23.0,29.98,ESE,110,17.4,17.7,58,0.00,,,0.00,TxWx,2013-02-18 14:15:00,
2013-02-18 08:20:00,38.1,23.0,29.97,East,101,16.5,16.5,58,0.00,,,0.00,TxWx,2013-02-18 14:20:00,
2013-02-18 08:26:00,38.4,23.0,29.97,ESE,113,24.0,24.0,58,0.00,,,0.00,TxWx,2013-02-18 14:26:00,
2013-02-18 08:31:00,38.9,24.0,29.97,ESE,109,15.9,16.2,58,0.00,,,0.00,TxWx,2013-02-18 14:31:00,
2013-02-18 08:36:00,38.9,24.0,29.96,ESE,106,14.1,15.9,57,0.00,,,0.00,TxWx,2013-02-18 14:36:00,
2013-02-18 08:42:00,39.0,24.0,29.96,ESE,108,18.9,20.1,57,0.00,,,0.00,TxWx,2013-02-18 14:42:00,
2013-02-18 08:47:00,39.1,24.0,29.96,ESE,119,21.9,22.5,57,0.00,,,0.00,TxWx,2013-02-18 14:47:00,
2013-02-18 08:52:00,39.0,24.0,29.96,ESE,115,18.3,19.8,57,0.00,,,0.00,TxWx,2013-02-18 14:52:00,
2013-02-18 08:57:00,39.2,24.0,29.96,ESE,119,15.0,16.8,57,0.00,,,0.00,TxWx,2013-02-18 14:57:00,
2013-02-18 09:03:00,39.7,25.0,29.96,ESE,114,13.8,15.0,57,0.00,,,0.00,TxWx,2013-02-18 15:03:00,
2013-02-18 09:08:00,39.9,25.0,29.95,SE,126,16.8,19.5,58,0.00,,,0.00,TxWx,2013-02-18 15:08:00,
2013-02-18 09:13:00,40.3,25.0,29.95,SE,124,14.1,14.4,58,0.00,,,0.00,TxWx,2013-02-18 15:13:00,
2013-02-18 09:19:00,40.7,26.0,29.95,ESE,117,18.6,18.6,58,0.00,,,0.00,TxWx,2013-02-18 15:19:00,
2013-02-18 09:24:00,41.1,26.0,29.94,ESE,120,13.5,13.5,57,0.00,,,0.00,TxWx,2013-02-18 15:24:00,
2013-02-18 09:29:00,41.4,26.0,29.95,ESE,114,15.6,15.6,57,0.00,,,0.00,TxWx,2013-02-18 15:29:00,
2013-02-18 09:34:00,41.9,27.0,29.94,ESE,119,22.2,23.7,58,0.00,,,0.00,TxWx,2013-02-18 15:34:00,
2013-02-18 09:39:00,42.1,27.0,29.94,SE,133,19.8,23.4,57,0.00,,,0.00,TxWx,2013-02-18 15:39:00,
2013-02-18 09:45:00,43.0,28.0,29.94,ESE,115,12.0,13.2,58,0.00,,,0.00,TxWx,2013-02-18 15:45:00,
2013-02-18 09:50:00,43.3,28.0,29.94,ESE,116,20.7,21.0,57,0.00,,,0.00,TxWx,2013-02-18 15:50:00,
2013-02-18 09:55:00,43.3,28.0,29.93,East,99,19.8,19.8,57,0.00,,,0.00,TxWx,2013-02-18 15:55:00,
2013-02-18 10:00:00,43.7,29.0,29.93,ESE,110,15.0,15.6,58,0.00,,,0.00,TxWx,2013-02-18 16:00:00,
2013-02-18 10:05:00,44.5,30.0,29.93,East,93,15.0,15.9,58,0.00,,,0.00,TxWx,2013-02-18 16:05:00,
2013-02-18 10:11:00,44.9,30.0,29.93,ESE,121,12.6,14.1,57,0.00,,,0.00,TxWx,2013-02-18 16:11:00,
2013-02-18 10:16:00,45.2,29.0,29.93,ESE,113,24.0,24.9,57,0.00,,,0.00,TxWx,2013-02-18 16:16:00,
2013-02-18 10:21:00,45.8,30.0,29.93,ESE,113,26.4,26.4,57,0.00,,,0.00,TxWx,2013-02-18 16:21:00,
2013-02-18 10:27:00,46.1,30.0,29.92,ESE,115,16.8,16.8,57,0.00,,,0.00,TxWx,2013-02-18 16:27:00,
2013-02-18 10:32:00,47.3,32.0,29.92,ESE,121,15.0,16.2,56,0.00,,,0.00,TxWx,2013-02-18 16:32:00,
2013-02-18 10:37:00,47.2,32.0,29.92,SE,126,18.6,20.4,56,0.00,,,0.00,TxWx,2013-02-18 16:37:00,
2013-02-18 10:42:00,47.9,33.0,29.91,ESE,109,13.2,13.2,56,0.00,,,0.00,TxWx,2013-02-18 16:42:00,
2013-02-18 10:47:00,48.0,33.0,29.92,SE,129,25.5,26.4,56,0.00,,,0.00,TxWx,2013-02-18 16:47:00,
2013-02-18 10:52:00,48.3,33.0,29.91,ESE,119,11.4,12.0,56,0.00,,,0.00,TxWx,2013-02-18 16:52:00,
2013-02-18 10:58:00,48.5,34.0,29.92,SE,127,19.2,19.2,56,0.00,,,0.00,TxWx,2013-02-18 16:58:00,
2013-02-18 11:03:00,48.4,33.0,29.91,ESE,121,23.7,23.7,57,0.00,,,0.00,TxWx,2013-02-18 17:03:00,
2013-02-18 11:08:00,49.4,34.0,29.91,ESE,116,17.7,19.2,57,0.00,,,0.00,TxWx,2013-02-18 17:08:00,
2013-02-18 11:13:00,49.1,34.0,29.91,ESE,117,19.8,19.8,56,0.00,,,0.00,TxWx,2013-02-18 17:13:00,
2013-02-18 11:18:00,49.7,35.0,29.91,ESE,113,14.7,16.2,57,0.00,,,0.00,TxWx,2013-02-18 17:18:00,
2013-02-18 11:23:00,50.2,35.0,29.90,ESE,120,21.6,23.4,56,0.00,,,0.00,TxWx,2013-02-18 17:23:00,
2013-02-18 11:29:00,50.8,36.0,29.90,ESE,115,24.3,24.3,56,0.00,,,0.00,TxWx,2013-02-18 17:29:00,
2013-02-18 11:34:00,50.9,36.0,29.90,ESE,120,24.0,24.0,56,0.00,,,0.00,TxWx,2013-02-18 17:34:00,
2013-02-18 11:39:00,51.6,37.0,29.90,ESE,116,17.7,18.3,56,0.00,,,0.00,TxWx,2013-02-18 17:39:00,
2013-02-18 11:44:00,50.7,36.0,29.90,ESE,123,20.4,20.4,56,0.00,,,0.00,TxWx,2013-02-18 17:44:00,
2013-02-18 11:49:00,50.8,36.0,29.89,ESE,118,23.7,23.7,57,0.00,,,0.00,TxWx,2013-02-18 17:49:00,
2013-02-18 11:54:00,50.9,36.0,29.89,SE,124,19.8,21.0,57,0.00,,,0.00,TxWx,2013-02-18 17:54:00,
2013-02-18 11:59:00,51.1,36.0,29.89,ESE,122,25.5,25.5,57,0.00,,,0.00,TxWx,2013-02-18 17:59:00,
2013-02-18 12:04:00,51.0,36.0,29.88,ESE,116,12.3,14.1,58,0.00,,,0.00,TxWx,2013-02-18 18:04:00,
2013-02-18 12:09:00,51.2,36.0,29.88,ESE,113,12.6,12.6,58,0.00,,,0.00,TxWx,2013-02-18 18:09:00,
2013-02-18 12:14:00,51.6,37.0,29.88,SE,126,18.9,18.9,58,0.00,,,0.00,TxWx,2013-02-18 18:14:00,
2013-02-18 12:20:00,52.2,37.0,29.87,ESE,111,12.0,13.8,57,0.00,,,0.00,TxWx,2013-02-18 18:20:00,
2013-02-18 12:25:00,52.6,38.0,29.86,SE,129,13.2,13.2,57,0.00,,,0.00,TxWx,2013-02-18 18:25:00,
2013-02-18 12:30:00,52.1,37.0,29.87,ESE,118,16.8,19.8,58,0.00,,,0.00,TxWx,2013-02-18 18:30:00,
2013-02-18 12:35:00,52.7,38.0,29.87,SE,128,22.2,22.2,58,0.00,,,0.00,TxWx,2013-02-18 18:35:00,
2013-02-18 12:41:00,52.7,38.0,29.87,ESE,116,13.5,14.7,58,0.00,,,0.00,TxWx,2013-02-18 18:41:00,
2013-02-18 12:46:00,53.2,39.0,29.86,ESE,118,17.7,17.7,58,0.00,,,0.00,TxWx,2013-02-18 18:46:00,
2013-02-18 12:51:00,53.3,39.0,29.86,ESE,118,16.8,16.8,58,0.00,,,0.00,TxWx,2013-02-18 18:51:00,
2013-02-18 12:56:00,53.3,38.0,29.85,ESE,116,11.1,11.1,58,0.00,,,0.00,TxWx,2013-02-18 18:56:00,
2013-02-18 13:01:00,53.0,39.0,29.85,SE,131,12.0,12.0,59,0.00,,,0.00,TxWx,2013-02-18 19:01:00,
2013-02-18 13:06:00,52.8,39.0,29.85,SE,140,18.6,20.4,60,0.00,,,0.00,TxWx,2013-02-18 19:06:00,
2013-02-18 13:11:00,52.7,40.0,29.85,ESE,119,24.3,27.9,61,0.00,,,0.00,TxWx,2013-02-18 19:11:00,
2013-02-18 13:16:00,52.6,40.0,29.85,ESE,116,12.9,13.8,62,0.00,,,0.00,TxWx,2013-02-18 19:16:00,
2013-02-18 13:21:00,52.4,40.0,29.84,ESE,120,19.8,23.4,63,0.00,,,0.00,TxWx,2013-02-18 19:21:00,
2013-02-18 13:26:00,52.2,40.0,29.84,ESE,119,13.2,14.4,64,0.00,,,0.00,TxWx,2013-02-18 19:26:00,
2013-02-18 13:32:00,52.0,40.0,29.84,ESE,117,17.4,20.7,65,0.00,,,0.00,TxWx,2013-02-18 19:32:00,
2013-02-18 13:37:00,52.0,41.0,29.84,SE,126,23.1,24.0,65,0.00,,,0.00,TxWx,2013-02-18 19:37:00,
2013-02-18 13:42:00,51.9,41.0,29.83,ESE,118,19.8,19.8,66,0.00,,,0.00,TxWx,2013-02-18 19:42:00,
2013-02-18 13:47:00,52.0,41.0,29.83,ESE,118,23.4,23.4,66,0.00,,,0.00,TxWx,2013-02-18 19:47:00,
2013-02-18 13:52:00,52.2,41.0,29.83,ESE,122,8.4,8.4,66,0.00,,,0.00,TxWx,2013-02-18 19:52:00,
2013-02-18 13:57:00,52.3,41.0,29.82,ESE,123,18.6,18.9,66,0.00,,,0.00,TxWx,2013-02-18 19:57:00,
2013-02-18 14:03:00,52.4,41.0,29.82,ESE,104,17.1,20.1,67,0.00,,,0.00,TxWx,2013-02-18 20:03:00,
2013-02-18 14:08:00,52.4,42.0,29.81,ESE,119,15.0,15.3,68,0.00,,,0.00,TxWx,2013-02-18 20:08:00,
2013-02-18 14:13:00,52.4,42.0,29.81,SE,127,24.6,24.6,68,0.00,,,0.00,TxWx,2013-02-18 20:13:00,
2013-02-18 14:19:00,52.3,42.0,29.81,ESE,123,17.1,18.0,69,0.00,,,0.00,TxWx,2013-02-18 20:19:00,
2013-02-18 14:24:00,52.2,42.0,29.81,ESE,111,17.1,19.2,70,0.00,,,0.00,TxWx,2013-02-18 20:24:00,
2013-02-18 14:29:00,52.2,43.0,29.81,ESE,121,16.8,18.3,70,0.00,,,0.00,TxWx,2013-02-18 20:29:00,
2013-02-18 14:35:00,52.0,43.0,29.81,ESE,105,9.6,9.6,70,0.00,,,0.00,TxWx,2013-02-18 20:35:00,
2013-02-18 14:40:00,51.7,43.0,29.81,ESE,112,13.8,13.8,71,0.00,,,0.00,TxWx,2013-02-18 20:40:00,
2013-02-18 14:45:00,51.5,42.0,29.81,ESE,113,14.7,19.2,71,0.00,,,0.00,TxWx,2013-02-18 20:45:00,
2013-02-18 14:50:00,51.3,42.0,29.81,ESE,121,17.1,19.5,72,0.00,,,0.00,TxWx,2013-02-18 20:50:00,
2013-02-18 14:56:00,51.2,42.0,29.81,ESE,109,16.5,18.9,72,0.00,,,0.00,TxWx,2013-02-18 20:56:00,
2013-02-18 15:02:00,51.2,42.0,29.80,SE,124,33.9,36.0,72,0.00,,,0.00,TxWx,2013-02-18 21:02:00,
2013-02-18 15:07:00,51.2,42.0,29.80,ESE,122,19.5,19.5,72,0.00,,,0.00,TxWx,2013-02-18 21:07:00,
2013-02-18 15:12:00,51.1,42.0,29.80,ESE,121,12.9,14.4,72,0.00,,,0.00,TxWx,2013-02-18 21:12:00,
2013-02-18 15:17:00,51.0,42.0,29.80,ESE,122,14.7,14.7,73,0.00,,,0.00,TxWx,2013-02-18 21:17:00,
2013-02-18 15:22:00,51.0,42.0,29.79,SE,132,16.2,16.2,73,0.00,,,0.00,TxWx,2013-02-18 21:22:00,
2013-02-18 15:27:00,51.0,43.0,29.79,ESE,122,20.4,20.4,73,0.00,,,0.00,TxWx,2013-02-18 21:27:00,
2013-02-18 15:33:00,50.9,43.0,29.79,SE,129,15.6,15.6,73,0.00,,,0.00,TxWx,2013-02-18 21:33:00,
2013-02-18 15:38:00,50.9,43.0,29.79,SE,135,10.5,10.5,73,0.00,,,0.00,TxWx,2013-02-18 21:38:00,
2013-02-18 15:43:00,50.9,43.0,29.79,SE,125,14.7,14.7,73,0.00,,,0.00,TxWx,2013-02-18 21:43:00,
2013-02-18 15:48:00,50.8,43.0,29.78,SE,125,11.4,12.9,74,0.00,,,0.00,TxWx,2013-02-18 21:48:00,
2013-02-18 15:54:00,50.6,43.0,29.78,ESE,113,17.1,18.6,75,0.00,,,0.00,TxWx,2013-02-18 21:54:00,
2013-02-18 15:59:00,50.5,43.0,29.78,ESE,119,20.1,21.9,76,0.00,,,0.00,TxWx,2013-02-18 21:59:00,
2013-02-18 16:04:00,50.1,43.0,29.78,ESE,114,15.9,18.3,77,0.00,,,0.00,TxWx,2013-02-18 22:04:00,
2013-02-18 16:09:00,49.9,43.0,29.77,ESE,123,27.6,29.4,78,0.00,,,0.00,TxWx,2013-02-18 22:09:00,
2013-02-18 16:15:00,49.5,44.0,29.77,ESE,119,11.7,13.2,79,0.00,,,0.00,TxWx,2013-02-18 22:15:00,
2013-02-18 16:20:00,49.3,43.0,29.77,ESE,121,12.0,12.9,80,0.00,,,0.00,TxWx,2013-02-18 22:20:00,
2013-02-18 16:25:00,49.3,43.0,29.77,ESE,115,23.7,23.7,81,0.00,,,0.00,TxWx,2013-02-18 22:25:00,
2013-02-18 16:30:00,49.2,43.0,29.77,ESE,114,15.3,15.6,81,0.00,,,0.00,TxWx,2013-02-18 22:30:00,
2013-02-18 16:37:00,49.6,44.0,29.76,SE,128,21.3,26.1,81,0.00,,,0.00,TxWx,2013-02-18 22:37:00,
2013-02-18 16:42:00,49.4,43.0,29.76,ESE,117,12.6,14.1,81,0.00,,,0.00,TxWx,2013-02-18 22:42:00,
2013-02-18 16:47:00,49.1,44.0,29.75,ESE,113,14.7,19.8,82,0.00,,,0.00,TxWx,2013-02-18 22:47:00,
2013-02-18 16:52:00,48.9,44.0,29.75,ESE,114,25.5,31.8,84,0.00,,,0.00,TxWx,2013-02-18 22:52:00,
2013-02-18 16:57:00,48.6,45.0,29.75,SE,124,23.7,23.7,85,0.00,,,0.00,TxWx,2013-02-18 22:57:00,
2013-02-18 17:05:00,48.3,44.0,29.75,ESE,115,15.6,17.1,87,0.00,,,0.00,TxWx,2013-02-18 23:05:00,
2013-02-18 17:10:00,48.3,45.0,29.75,ESE,116,15.0,15.0,88,0.00,,,0.00,TxWx,2013-02-18 23:10:00,
2013-02-18 17:16:00,48.2,45.0,29.75,ESE,117,19.5,21.6,88,0.00,,,0.00,TxWx,2013-02-18 23:16:00,
2013-02-18 17:21:00,48.2,45.0,29.75,ESE,109,18.0,18.0,88,0.00,,,0.00,TxWx,2013-02-18 23:21:00,
2013-02-18 17:26:00,48.3,45.0,29.74,ESE,110,15.3,15.3,88,0.00,,,0.01,TxWx,2013-02-18 23:26:00,
2013-02-18 17:31:00,48.4,44.0,29.74,ESE,109,23.4,25.5,87,0.06,,,0.01,TxWx,2013-02-18 23:31:00,
2013-02-18 17:37:00,48.3,44.0,29.73,ESE,104,15.9,18.0,86,0.06,,,0.01,TxWx,2013-02-18 23:37:00,
2013-02-18 17:42:00,48.6,45.0,29.73,East,87,14.1,18.6,85,0.00,,,0.01,TxWx,2013-02-18 23:42:00,
2013-02-18 17:47:00,48.8,44.0,29.73,ESE,115,17.1,17.1,83,0.00,,,0.01,TxWx,2013-02-18 23:47:00,
2013-02-18 17:52:00,48.8,43.0,29.73,SE,125,31.2,35.4,81,0.00,,,0.01,TxWx,2013-02-18 23:52:00,
2013-02-18 17:57:00,48.7,43.0,29.73,ESE,113,15.9,16.8,81,0.00,,,0.01,TxWx,2013-02-18 23:57:00,
2013-02-18 18:02:00,48.6,43.0,29.72,ESE,112,27.6,27.6,81,0.00,,,0.01,TxWx,2013-02-19 00:02:00,
2013-02-18 18:07:00,48.6,43.0,29.72,ESE,119,13.5,15.0,80,0.00,,,0.01,TxWx,2013-02-19 00:07:00,
2013-02-18 18:12:00,48.2,42.0,29.72,ESE,121,15.3,16.8,80,0.00,,,0.01,TxWx,2013-02-19 00:12:00,
2013-02-18 18:18:00,48.2,42.0,29.71,ESE,107,22.8,24.3,81,0.00,,,0.01,TxWx,2013-02-19 00:18:00,
2013-02-18 18:23:00,48.1,42.0,29.71,ESE,117,17.1,18.3,81,0.00,,,0.01,TxWx,2013-02-19 00:23:00,
2013-02-18 18:28:00,47.8,42.0,29.71,ESE,109,17.1,17.1,81,0.00,,,0.01,TxWx,2013-02-19 00:28:00,
2013-02-18 18:33:00,47.7,43.0,29.71,ESE,116,15.0,15.6,82,0.00,,,0.01,TxWx,2013-02-19 00:33:00,
2013-02-18 18:39:00,47.8,42.0,29.70,ESE,102,14.1,19.8,81,0.00,,,0.01,TxWx,2013-02-19 00:39:00,
2013-02-18 18:44:00,47.9,42.0,29.70,ESE,109,19.8,19.8,81,0.00,,,0.01,TxWx,2013-02-19 00:44:00,
2013-02-18 18:49:00,47.7,42.0,29.70,ESE,118,12.3,12.6,81,0.00,,,0.01,TxWx,2013-02-19 00:49:00,
2013-02-18 18:55:00,47.5,41.0,29.70,ESE,113,12.0,12.0,81,0.00,,,0.01,TxWx,2013-02-19 00:55:00,
2013-02-18 19:03:00,47.4,41.0,29.69,ESE,112,18.9,19.8,81,0.00,,,0.01,TxWx,2013-02-19 01:03:00,
2013-02-18 19:08:00,47.3,41.0,29.69,ESE,106,10.2,13.5,81,0.00,,,0.01,TxWx,2013-02-19 01:08:00,
2013-02-18 19:13:00,47.3,41.0,29.69,ESE,108,20.1,20.1,80,0.00,,,0.01,TxWx,2013-02-19 01:13:00,
2013-02-18 19:18:00,47.1,41.0,29.69,ESE,117,27.9,27.9,81,0.00,,,0.01,TxWx,2013-02-19 01:18:00,
2013-02-18 19:23:00,46.6,42.0,29.68,ESE,115,25.2,27.6,83,0.06,,,0.02,TxWx,2013-02-19 01:23:00,
2013-02-18 19:28:00,46.4,41.0,29.68,ESE,104,12.9,16.5,84,0.06,,,0.03,TxWx,2013-02-19 01:28:00,
2013-02-18 19:34:00,46.4,42.0,29.67,ESE,105,22.5,23.7,85,0.06,,,0.04,TxWx,2013-02-19 01:34:00,
2013-02-18 19:41:00,46.2,42.0,29.67,SE,124,25.8,27.0,86,0.18,,,0.06,TxWx,2013-02-19 01:41:00,
2013-02-18 19:46:00,46.3,42.0,29.67,East,98,13.2,15.3,87,0.18,,,0.09,TxWx,2013-02-19 01:46:00,
2013-02-18 19:53:00,46.2,42.0,29.66,ESE,106,25.5,26.1,87,0.30,,,0.14,TxWx,2013-02-19 01:53:00,
2013-02-18 19:59:00,45.9,42.0,29.65,ESE,108,20.4,26.4,88,0.30,,,0.17,TxWx,2013-02-19 01:59:00,
2013-02-18 20:04:00,45.9,43.0,29.65,ESE,114,32.4,32.4,88,0.36,,,0.18,TxWx,2013-02-19 02:04:00,
2013-02-18 20:09:00,45.9,43.0,29.65,ESE,110,23.4,23.4,88,0.36,,,0.18,TxWx,2013-02-19 02:09:00,
2013-02-18 20:16:00,45.7,43.0,29.64,ESE,116,14.1,17.1,88,0.06,,,0.19,TxWx,2013-02-19 02:16:00,
2013-02-18 20:21:00,45.8,43.0,29.64,ESE,103,27.0,28.2,89,0.06,,,0.19,TxWx,2013-02-19 02:21:00,
2013-02-18 20:26:00,45.8,43.0,29.64,ESE,107,34.5,34.5,89,0.06,,,0.20,TxWx,2013-02-19 02:26:00,
2013-02-18 20:31:00,45.9,43.0,29.63,ESE,112,17.1,17.1,89,0.06,,,0.21,TxWx,2013-02-19 02:31:00,
2013-02-18 20:37:00,45.9,43.0,29.62,ESE,112,26.1,26.1,89,0.06,,,0.21,TxWx,2013-02-19 02:37:00,
2013-02-18 20:44:00,45.9,43.0,29.62,ESE,107,21.6,24.9,89,0.06,,,0.22,TxWx,2013-02-19 02:44:00,
2013-02-18 20:51:00,45.8,43.0,29.62,East,99,17.7,18.0,89,0.06,,,0.22,TxWx,2013-02-19 02:51:00,
2013-02-18 20:56:00,45.9,43.0,29.62,ESE,106,22.8,22.8,89,0.06,,,0.22,TxWx,2013-02-19 02:56:00,
2013-02-18 21:01:00,45.9,43.0,29.61,ESE,110,21.6,21.6,89,0.06,,,0.23,TxWx,2013-02-19 03:01:00,
2013-02-18 21:06:00,45.8,43.0,29.61,ESE,105,22.5,24.9,89,0.06,,,0.23,TxWx,2013-02-19 03:06:00,
2013-02-18 21:12:00,45.9,43.0,29.60,ESE,111,21.6,23.7,90,0.00,,,0.24,TxWx,2013-02-19 03:12:00,
2013-02-18 21:17:00,46.0,43.0,29.61,ESE,111,28.8,28.8,90,0.00,,,0.24,TxWx,2013-02-19 03:17:00,
2013-02-18 21:23:00,46.0,43.0,29.60,ESE,113,24.3,24.3,90,0.12,,,0.25,TxWx,2013-02-19 03:23:00,
2013-02-18 21:31:00,46.3,43.0,29.60,ESE,103,20.4,20.4,90,0.06,,,0.26,TxWx,2013-02-19 03:31:00,
2013-02-18 21:36:00,46.4,43.0,29.60,ESE,117,32.7,32.7,90,0.06,,,0.26,TxWx,2013-02-19 03:36:00,
2013-02-18 21:44:00,46.5,44.0,29.61,SE,126,24.6,30.0,90,0.00,,,0.26,TxWx,2013-02-19 03:44:00,
2013-02-18 21:51:00,46.4,43.0,29.60,ESE,117,16.2,16.2,90,0.00,,,0.27,TxWx,2013-02-19 03:51:00,
2013-02-18 21:56:00,46.7,44.0,29.60,ESE,111,25.8,27.9,90,0.00,,,0.27,TxWx,2013-02-19 03:56:00,
2013-02-18 22:03:00,46.7,44.0,29.60,ESE,120,30.9,33.0,89,0.06,,,0.27,TxWx,2013-02-19 04:03:00,
2013-02-18 22:08:00,46.7,44.0,29.60,SE,126,20.4,20.4,89,0.06,,,0.27,TxWx,2013-02-19 04:08:00,
2013-02-18 22:13:00,46.7,44.0,29.61,ESE,117,28.5,28.5,90,0.06,,,0.28,TxWx,2013-02-19 04:13:00,
2013-02-18 22:18:00,46.4,43.0,29.61,SE,124,20.4,21.3,90,0.06,,,0.29,TxWx,2013-02-19 04:18:00,
2013-02-18 22:24:00,46.1,43.0,29.61,SE,139,14.1,14.1,90,0.06,,,0.29,TxWx,2013-02-19 04:24:00,
2013-02-18 22:31:00,45.0,42.0,29.62,SSE,163,4.2,4.5,90,0.06,,,0.30,TxWx,2013-02-19 04:31:00,
2013-02-18 22:36:00,42.4,39.0,29.63,SSE,151,6.6,9.0,88,0.06,,,0.31,TxWx,2013-02-19 04:36:00,
2013-02-18 22:41:00,41.4,38.0,29.63,SSE,151,13.8,17.1,88,0.06,,,0.31,TxWx,2013-02-19 04:41:00,
2013-02-18 22:47:00,40.2,37.0,29.64,SSE,149,13.5,14.4,89,0.06,,,0.32,TxWx,2013-02-19 04:47:00,
2013-02-18 22:53:00,39.1,36.0,29.64,SSE,162,12.0,12.0,89,0.06,,,0.33,TxWx,2013-02-19 04:53:00,
2013-02-18 22:58:00,38.2,35.0,29.65,SSE,149,9.3,9.3,89,0.06,,,0.33,TxWx,2013-02-19 04:58:00,
2013-02-18 23:00:00,37.8,35.0,29.66,SE,137,10.2,11.7,89,0.06,,,0.33,TxWx,2013-02-19 05:00:00,
2013-02-18 23:04:00,36.8,34.0,29.67,SE,144,16.2,16.2,89,0.06,,,0.34,TxWx,2013-02-19 05:04:00,
2013-02-18 23:09:00,35.7,33.0,29.67,SSE,163,13.8,16.5,90,0.06,,,0.34,TxWx,2013-02-19 05:09:00,
2013-02-18 23:10:00,35.6,33.0,29.67,SSE,151,17.4,18.6,90,0.06,,,0.34,TxWx,2013-02-19 05:10:00,
2013-02-18 23:15:00,35.4,33.0,29.67,SSE,167,12.0,16.2,91,0.06,,,0.35,TxWx,2013-02-19 05:15:00,
2013-02-18 23:20:00,35.3,33.0,29.68,SSE,160,14.7,14.7,92,0.06,,,0.35,TxWx,2013-02-19 05:20:00,
2013-02-18 23:25:00,35.4,33.0,29.68,SSE,163,11.7,11.7,92,0.06,,,0.35,TxWx,2013-02-19 05:25:00,
2013-02-18 23:30:00,35.4,33.0,29.68,SSE,159,16.8,16.8,92,0.00,,,0.35,TxWx,2013-02-19 05:30:00,
2013-02-18 23:35:00,35.4,33.0,29.69,SSE,158,12.6,12.6,92,0.00,,,0.36,TxWx,2013-02-19 05:35:00,
2013-02-18 23:40:00,35.2,33.0,29.69,SE,145,14.4,14.4,91,0.06,,,0.36,TxWx,2013-02-19 05:40:00,
2013-02-18 23:45:00,35.0,33.0,29.69,SSE,149,6.6,6.6,91,0.06,,,0.36,TxWx,2013-02-19 05:45:00,
2013-02-18 23:50:00,34.7,33.0,29.69,SSE,158,24.0,24.0,91,0.00,,,0.36,TxWx,2013-02-19 05:50:00,
2013-02-18 23:55:00,34.6,33.0,29.69,SSE,160,7.5,8.1,91,0.00,,,0.36,TxWx,2013-02-19 05:55:00,